sensor_id;sensor_type;location;lat;lon;timestamp;temperature;humidity
27671;DHT22;15077;49.704;9.908;2022-12-31T00:01:07;14.70;78.00
27671;DHT22;15077;49.704;9.908;2022-12-31T00:03:35;14.70;78.00
27671;DHT22;15077;49.704;9.908;2022-12-31T00:08:53;14.70;78.20
27671;DHT22;15077;49.704;9.908;2022-12-31T00:11:21;14.70;77.80
27671;DHT22;15077;49.704;9.908;2022-12-31T00:13:48;14.70;77.80
27671;DHT22;15077;49.704;9.908;2022-12-31T00:16:20;14.70;77.60
27671;DHT22;15077;49.704;9.908;2022-12-31T00:18:50;14.70;77.60
27671;DHT22;15077;49.704;9.908;2022-12-31T00:21:18;14.80;77.50
27671;DHT22;15077;49.704;9.908;2022-12-31T00:23:44;14.80;77.40
27671;DHT22;15077;49.704;9.908;2022-12-31T00:26:13;14.80;77.50
27671;DHT22;15077;49.704;9.908;2022-12-31T00:28:43;14.80;77.40
27671;DHT22;15077;49.704;9.908;2022-12-31T00:31:12;14.70;77.50
27671;DHT22;15077;49.704;9.908;2022-12-31T00:33:40;14.70;77.60
27671;DHT22;15077;49.704;9.908;2022-12-31T00:36:14;14.80;77.50
27671;DHT22;15077;49.704;9.908;2022-12-31T00:38:44;14.80;77.40
27671;DHT22;15077;49.704;9.908;2022-12-31T00:41:11;14.80;77.30
27671;DHT22;15077;49.704;9.908;2022-12-31T00:43:39;14.80;77.20
27671;DHT22;15077;49.704;9.908;2022-12-31T00:46:06;14.80;77.10
27671;DHT22;15077;49.704;9.908;2022-12-31T00:48:33;14.80;77.20
27671;DHT22;15077;49.704;9.908;2022-12-31T00:51:00;14.90;77.10
27671;DHT22;15077;49.704;9.908;2022-12-31T00:53:28;14.90;77.10
27671;DHT22;15077;49.704;9.908;2022-12-31T00:56:02;14.90;77.20
27671;DHT22;15077;49.704;9.908;2022-12-31T00:58:33;14.90;77.40
27671;DHT22;15077;49.704;9.908;2022-12-31T01:01:28;14.90;77.30
27671;DHT22;15077;49.704;9.908;2022-12-31T01:04:18;14.90;77.30
27671;DHT22;15077;49.704;9.908;2022-12-31T01:06:46;14.90;77.10
27671;DHT22;15077;49.704;9.908;2022-12-31T01:09:13;14.90;77.10
27671;DHT22;15077;49.704;9.908;2022-12-31T01:11:42;14.90;77.10
27671;DHT22;15077;49.704;9.908;2022-12-31T01:14:15;15.00;77.30
27671;DHT22;15077;49.704;9.908;2022-12-31T01:16:44;15.00;77.40
27671;DHT22;15077;49.704;9.908;2022-12-31T01:19:25;15.00;77.40
27671;DHT22;15077;49.704;9.908;2022-12-31T01:21:55;15.00;77.40
27671;DHT22;15077;49.704;9.908;2022-12-31T01:24:21;15.00;77.30
27671;DHT22;15077;49.704;9.908;2022-12-31T01:26:47;15.00;77.20
27671;DHT22;15077;49.704;9.908;2022-12-31T01:29:13;15.10;77.40
27671;DHT22;15077;49.704;9.908;2022-12-31T01:31:40;15.10;77.60
27671;DHT22;15077;49.704;9.908;2022-12-31T01:34:08;15.10;77.60
27671;DHT22;15077;49.704;9.908;2022-12-31T01:36:35;15.10;78.00
27671;DHT22;15077;49.704;9.908;2022-12-31T01:39:04;15.10;78.10
27671;DHT22;15077;49.704;9.908;2022-12-31T01:41:35;15.10;78.00
27671;DHT22;15077;49.704;9.908;2022-12-31T01:46:47;15.10;78.40
27671;DHT22;15077;49.704;9.908;2022-12-31T01:49:53;15.10;78.50
27671;DHT22;15077;49.704;9.908;2022-12-31T01:52:28;15.20;78.70
27671;DHT22;15077;49.704;9.908;2022-12-31T01:55:15;15.20;78.60
27671;DHT22;15077;49.704;9.908;2022-12-31T01:57:55;15.20;79.00
27671;DHT22;15077;49.704;9.908;2022-12-31T02:00:24;15.20;78.90
27671;DHT22;15077;49.704;9.908;2022-12-31T02:02:50;15.20;79.00
27671;DHT22;15077;49.704;9.908;2022-12-31T02:05:47;15.20;79.00
27671;DHT22;15077;49.704;9.908;2022-12-31T02:08:20;15.30;79.50
27671;DHT22;15077;49.704;9.908;2022-12-31T02:10:46;15.30;78.90
27671;DHT22;15077;49.704;9.908;2022-12-31T02:13:13;15.30;78.80
27671;DHT22;15077;49.704;9.908;2022-12-31T02:27:00;15.50;78.80
27671;DHT22;15077;49.704;9.908;2022-12-31T02:30:00;15.50;78.70
27671;DHT22;15077;49.704;9.908;2022-12-31T02:33:03;15.50;78.80
27671;DHT22;15077;49.704;9.908;2022-12-31T02:35:55;15.50;78.50
27671;DHT22;15077;49.704;9.908;2022-12-31T02:38:33;15.60;78.50
27671;DHT22;15077;49.704;9.908;2022-12-31T02:41:03;15.60;78.40
27671;DHT22;15077;49.704;9.908;2022-12-31T02:43:29;15.60;78.20
27671;DHT22;15077;49.704;9.908;2022-12-31T02:46:15;15.60;78.10
27671;DHT22;15077;49.704;9.908;2022-12-31T02:49:20;15.70;78.10
27671;DHT22;15077;49.704;9.908;2022-12-31T02:58:21;15.80;77.60
27671;DHT22;15077;49.704;9.908;2022-12-31T03:01:16;15.80;77.40
27671;DHT22;15077;49.704;9.908;2022-12-31T03:04:05;15.90;77.20
27671;DHT22;15077;49.704;9.908;2022-12-31T03:06:51;15.90;77.00
27671;DHT22;15077;49.704;9.908;2022-12-31T03:09:18;15.90;76.80
27671;DHT22;15077;49.704;9.908;2022-12-31T03:11:44;16.00;76.70
27671;DHT22;15077;49.704;9.908;2022-12-31T03:14:29;16.00;76.70
27671;DHT22;15077;49.704;9.908;2022-12-31T03:16:55;16.00;76.30
27671;DHT22;15077;49.704;9.908;2022-12-31T03:19:21;16.10;76.20
27671;DHT22;15077;49.704;9.908;2022-12-31T03:22:05;16.10;76.00
27671;DHT22;15077;49.704;9.908;2022-12-31T03:24:50;16.10;75.80
27671;DHT22;15077;49.704;9.908;2022-12-31T03:27:34;16.10;75.70
27671;DHT22;15077;49.704;9.908;2022-12-31T03:30:00;16.20;75.50
27671;DHT22;15077;49.704;9.908;2022-12-31T03:32:26;16.20;75.30
27671;DHT22;15077;49.704;9.908;2022-12-31T03:34:52;16.20;75.20
27671;DHT22;15077;49.704;9.908;2022-12-31T03:37:18;16.10;75.10
27671;DHT22;15077;49.704;9.908;2022-12-31T03:39:44;16.20;74.90
27671;DHT22;15077;49.704;9.908;2022-12-31T03:42:10;16.20;74.80
27671;DHT22;15077;49.704;9.908;2022-12-31T03:44:35;16.20;74.70
27671;DHT22;15077;49.704;9.908;2022-12-31T03:47:01;16.20;74.60
27671;DHT22;15077;49.704;9.908;2022-12-31T03:49:27;16.20;74.50
27671;DHT22;15077;49.704;9.908;2022-12-31T03:51:52;16.20;74.40
27671;DHT22;15077;49.704;9.908;2022-12-31T03:54:18;16.10;74.20
27671;DHT22;15077;49.704;9.908;2022-12-31T03:56:44;16.20;74.40
27671;DHT22;15077;49.704;9.908;2022-12-31T03:59:10;16.20;74.30
27671;DHT22;15077;49.704;9.908;2022-12-31T04:01:35;16.20;74.30
27671;DHT22;15077;49.704;9.908;2022-12-31T04:04:01;16.20;74.20
27671;DHT22;15077;49.704;9.908;2022-12-31T04:06:27;16.20;74.20
27671;DHT22;15077;49.704;9.908;2022-12-31T04:08:53;16.20;74.20
27671;DHT22;15077;49.704;9.908;2022-12-31T04:11:19;16.20;74.00
27671;DHT22;15077;49.704;9.908;2022-12-31T04:13:45;16.20;73.90
27671;DHT22;15077;49.704;9.908;2022-12-31T04:16:11;16.30;73.90
27671;DHT22;15077;49.704;9.908;2022-12-31T04:18:37;16.30;73.90
27671;DHT22;15077;49.704;9.908;2022-12-31T04:21:03;16.30;73.70
27671;DHT22;15077;49.704;9.908;2022-12-31T04:23:30;16.30;73.60
27671;DHT22;15077;49.704;9.908;2022-12-31T04:25:58;16.30;73.60
27671;DHT22;15077;49.704;9.908;2022-12-31T04:28:24;16.30;73.40
27671;DHT22;15077;49.704;9.908;2022-12-31T04:30:50;16.30;73.40
27671;DHT22;15077;49.704;9.908;2022-12-31T04:33:16;16.30;73.40
27671;DHT22;15077;49.704;9.908;2022-12-31T04:35:46;16.30;73.40
27671;DHT22;15077;49.704;9.908;2022-12-31T04:38:12;16.40;73.40
27671;DHT22;15077;49.704;9.908;2022-12-31T04:40:38;16.40;73.30
27671;DHT22;15077;49.704;9.908;2022-12-31T04:43:24;16.40;73.30
27671;DHT22;15077;49.704;9.908;2022-12-31T04:45:51;16.40;73.30
27671;DHT22;15077;49.704;9.908;2022-12-31T04:48:17;16.40;73.30
27671;DHT22;15077;49.704;9.908;2022-12-31T04:50:46;16.40;73.20
27671;DHT22;15077;49.704;9.908;2022-12-31T04:53:14;16.40;73.30
27671;DHT22;15077;49.704;9.908;2022-12-31T04:55:42;16.40;73.20
27671;DHT22;15077;49.704;9.908;2022-12-31T04:58:10;16.40;73.30
27671;DHT22;15077;49.704;9.908;2022-12-31T05:00:36;16.40;73.30
27671;DHT22;15077;49.704;9.908;2022-12-31T05:03:02;16.50;73.30
27671;DHT22;15077;49.704;9.908;2022-12-31T05:05:28;16.50;73.40
27671;DHT22;15077;49.704;9.908;2022-12-31T05:07:54;16.50;73.40
27671;DHT22;15077;49.704;9.908;2022-12-31T05:10:20;16.50;73.30
27671;DHT22;15077;49.704;9.908;2022-12-31T05:12:45;16.50;73.20
27671;DHT22;15077;49.704;9.908;2022-12-31T05:15:14;16.50;73.20
27671;DHT22;15077;49.704;9.908;2022-12-31T05:17:39;16.60;73.20
27671;DHT22;15077;49.704;9.908;2022-12-31T05:20:05;16.60;73.10
27671;DHT22;15077;49.704;9.908;2022-12-31T05:22:32;16.60;73.00
27671;DHT22;15077;49.704;9.908;2022-12-31T05:24:59;16.60;73.00
27671;DHT22;15077;49.704;9.908;2022-12-31T05:27:26;16.70;72.90
27671;DHT22;15077;49.704;9.908;2022-12-31T05:29:55;16.70;72.90
27671;DHT22;15077;49.704;9.908;2022-12-31T05:32:21;16.70;72.90
27671;DHT22;15077;49.704;9.908;2022-12-31T05:34:46;16.70;73.30
27671;DHT22;15077;49.704;9.908;2022-12-31T05:37:12;16.80;72.70
27671;DHT22;15077;49.704;9.908;2022-12-31T05:39:38;16.70;72.50
27671;DHT22;15077;49.704;9.908;2022-12-31T05:42:03;16.80;72.50
27671;DHT22;15077;49.704;9.908;2022-12-31T05:44:29;16.70;72.50
27671;DHT22;15077;49.704;9.908;2022-12-31T05:46:55;16.70;72.50
27671;DHT22;15077;49.704;9.908;2022-12-31T05:49:20;16.70;72.60
27671;DHT22;15077;49.704;9.908;2022-12-31T05:51:46;16.80;72.70
27671;DHT22;15077;49.704;9.908;2022-12-31T05:54:12;16.80;72.80
27671;DHT22;15077;49.704;9.908;2022-12-31T05:56:38;16.80;72.80
27671;DHT22;15077;49.704;9.908;2022-12-31T05:59:03;16.80;72.70
27671;DHT22;15077;49.704;9.908;2022-12-31T06:01:29;16.90;72.70
27671;DHT22;15077;49.704;9.908;2022-12-31T06:03:55;16.90;72.60
27671;DHT22;15077;49.704;9.908;2022-12-31T06:06:21;16.90;73.20
27671;DHT22;15077;49.704;9.908;2022-12-31T06:08:50;16.90;72.60
27671;DHT22;15077;49.704;9.908;2022-12-31T06:11:16;17.00;72.60
27671;DHT22;15077;49.704;9.908;2022-12-31T06:13:42;17.00;72.50
27671;DHT22;15077;49.704;9.908;2022-12-31T06:16:09;17.00;72.50
27671;DHT22;15077;49.704;9.908;2022-12-31T06:18:36;17.00;72.30
27671;DHT22;15077;49.704;9.908;2022-12-31T06:21:02;17.10;72.40
27671;DHT22;15077;49.704;9.908;2022-12-31T06:23:28;17.10;72.30
27671;DHT22;15077;49.704;9.908;2022-12-31T06:25:54;17.10;72.20
27671;DHT22;15077;49.704;9.908;2022-12-31T06:28:20;17.10;72.10
27671;DHT22;15077;49.704;9.908;2022-12-31T06:30:47;17.20;72.20
27671;DHT22;15077;49.704;9.908;2022-12-31T06:33:13;17.10;72.00
27671;DHT22;15077;49.704;9.908;2022-12-31T06:35:38;17.20;72.00
27671;DHT22;15077;49.704;9.908;2022-12-31T06:38:04;17.20;72.00
27671;DHT22;15077;49.704;9.908;2022-12-31T06:40:30;17.20;71.90
27671;DHT22;15077;49.704;9.908;2022-12-31T06:42:55;17.30;71.90
27671;DHT22;15077;49.704;9.908;2022-12-31T06:45:21;17.30;71.70
27671;DHT22;15077;49.704;9.908;2022-12-31T06:47:47;17.30;71.70
27671;DHT22;15077;49.704;9.908;2022-12-31T06:50:13;17.30;71.40
27671;DHT22;15077;49.704;9.908;2022-12-31T06:52:38;17.30;71.70
27671;DHT22;15077;49.704;9.908;2022-12-31T06:55:04;17.30;71.60
27671;DHT22;15077;49.704;9.908;2022-12-31T06:57:31;17.30;71.90
27671;DHT22;15077;49.704;9.908;2022-12-31T06:59:57;17.40;71.50
27671;DHT22;15077;49.704;9.908;2022-12-31T07:11:25;17.50;71.30
27671;DHT22;15077;49.704;9.908;2022-12-31T07:22:14;17.50;70.90
27671;DHT22;15077;49.704;9.908;2022-12-31T07:24:42;17.40;70.90
27671;DHT22;15077;49.704;9.908;2022-12-31T07:30:18;17.40;71.00
27671;DHT22;15077;49.704;9.908;2022-12-31T07:33:26;17.40;71.00
27671;DHT22;15077;49.704;9.908;2022-12-31T07:44:15;17.30;71.00
27671;DHT22;15077;49.704;9.908;2022-12-31T07:46:56;17.30;71.10
27671;DHT22;15077;49.704;9.908;2022-12-31T07:49:25;17.30;71.00
27671;DHT22;15077;49.704;9.908;2022-12-31T07:51:52;17.30;70.90
27671;DHT22;15077;49.704;9.908;2022-12-31T07:54:19;17.30;71.20
27671;DHT22;15077;49.704;9.908;2022-12-31T07:56:46;17.30;71.20
27671;DHT22;15077;49.704;9.908;2022-12-31T08:11:21;17.30;71.30
27671;DHT22;15077;49.704;9.908;2022-12-31T08:14:09;17.30;71.30
27671;DHT22;15077;49.704;9.908;2022-12-31T08:16:37;17.30;71.30
27671;DHT22;15077;49.704;9.908;2022-12-31T08:19:03;17.40;71.40
27671;DHT22;15077;49.704;9.908;2022-12-31T08:34:05;17.40;71.10
27671;DHT22;15077;49.704;9.908;2022-12-31T08:39:54;17.40;70.90
27671;DHT22;15077;49.704;9.908;2022-12-31T08:45:52;17.40;70.90
27671;DHT22;15077;49.704;9.908;2022-12-31T08:50:51;17.40;71.10
27671;DHT22;15077;49.704;9.908;2022-12-31T08:53:18;17.40;71.00
27671;DHT22;15077;49.704;9.908;2022-12-31T08:55:46;17.50;70.90
27671;DHT22;15077;49.704;9.908;2022-12-31T09:01:11;17.50;71.00
27671;DHT22;15077;49.704;9.908;2022-12-31T09:04:01;17.50;70.90
27671;DHT22;15077;49.704;9.908;2022-12-31T09:06:47;17.60;70.70
27671;DHT22;15077;49.704;9.908;2022-12-31T09:15:17;17.70;70.50
27671;DHT22;15077;49.704;9.908;2022-12-31T09:17:49;17.70;71.10
27671;DHT22;15077;49.704;9.908;2022-12-31T09:20:28;17.80;70.30
27671;DHT22;15077;49.704;9.908;2022-12-31T09:22:56;17.90;70.20
27671;DHT22;15077;49.704;9.908;2022-12-31T09:25:24;18.00;70.20
27671;DHT22;15077;49.704;9.908;2022-12-31T09:30:49;18.10;69.90
27671;DHT22;15077;49.704;9.908;2022-12-31T09:33:45;18.20;69.80
27671;DHT22;15077;49.704;9.908;2022-12-31T09:36:40;18.20;69.70
27671;DHT22;15077;49.704;9.908;2022-12-31T09:45:13;18.30;68.40
27671;DHT22;15077;49.704;9.908;2022-12-31T09:59:11;18.70;68.80
27671;DHT22;15077;49.704;9.908;2022-12-31T10:10:19;19.10;68.00
27671;DHT22;15077;49.704;9.908;2022-12-31T10:30:18;19.70;65.40
27671;DHT22;15077;49.704;9.908;2022-12-31T11:02:15;19.80;64.70
27671;DHT22;15077;49.704;9.908;2022-12-31T11:13:56;19.90;64.10
27671;DHT22;15077;49.704;9.908;2022-12-31T11:19:37;20.00;64.30
27671;DHT22;15077;49.704;9.908;2022-12-31T11:30:31;20.60;63.60
27671;DHT22;15077;49.704;9.908;2022-12-31T11:37:03;21.00;62.90
27671;DHT22;15077;49.704;9.908;2022-12-31T11:47:53;21.60;61.40
27671;DHT22;15077;49.704;9.908;2022-12-31T11:56:20;21.80;58.60
27671;DHT22;15077;49.704;9.908;2022-12-31T11:58:51;21.80;59.10
27671;DHT22;15077;49.704;9.908;2022-12-31T12:01:21;21.80;59.10
27671;DHT22;15077;49.704;9.908;2022-12-31T12:03:48;21.90;59.60
27671;DHT22;15077;49.704;9.908;2022-12-31T12:06:23;21.90;59.50
27671;DHT22;15077;49.704;9.908;2022-12-31T12:08:55;22.00;59.40
27671;DHT22;15077;49.704;9.908;2022-12-31T12:11:29;22.00;59.00
27671;DHT22;15077;49.704;9.908;2022-12-31T12:13:58;22.00;59.00
27671;DHT22;15077;49.704;9.908;2022-12-31T12:16:25;22.10;59.10
27671;DHT22;15077;49.704;9.908;2022-12-31T12:19:06;22.10;58.80
27671;DHT22;15077;49.704;9.908;2022-12-31T12:21:46;22.00;58.40
27671;DHT22;15077;49.704;9.908;2022-12-31T12:24:29;22.00;58.30
27671;DHT22;15077;49.704;9.908;2022-12-31T12:26:56;22.00;57.80
27671;DHT22;15077;49.704;9.908;2022-12-31T12:29:26;22.00;57.80
27671;DHT22;15077;49.704;9.908;2022-12-31T12:34:36;22.00;58.50
27671;DHT22;15077;49.704;9.908;2022-12-31T12:37:20;22.00;58.00
27671;DHT22;15077;49.704;9.908;2022-12-31T12:40:16;22.10;58.70
27671;DHT22;15077;49.704;9.908;2022-12-31T12:42:49;22.10;57.90
27671;DHT22;15077;49.704;9.908;2022-12-31T12:45:19;22.20;58.50
27671;DHT22;15077;49.704;9.908;2022-12-31T12:47:53;22.20;57.80
27671;DHT22;15077;49.704;9.908;2022-12-31T12:50:25;22.10;58.10
27671;DHT22;15077;49.704;9.908;2022-12-31T12:53:32;22.10;57.90
27671;DHT22;15077;49.704;9.908;2022-12-31T13:02:00;21.90;57.20
27671;DHT22;15077;49.704;9.908;2022-12-31T13:10:50;21.50;57.40
27671;DHT22;15077;49.704;9.908;2022-12-31T13:13:24;21.40;57.30
27671;DHT22;15077;49.704;9.908;2022-12-31T13:27:44;20.90;58.70
27671;DHT22;15077;49.704;9.908;2022-12-31T13:30:18;20.90;58.90
27671;DHT22;15077;49.704;9.908;2022-12-31T13:33:08;20.80;59.00
27671;DHT22;15077;49.704;9.908;2022-12-31T13:35:57;20.80;59.20
27671;DHT22;15077;49.704;9.908;2022-12-31T13:38:33;20.70;58.80
27671;DHT22;15077;49.704;9.908;2022-12-31T13:44:29;20.60;59.20
27671;DHT22;15077;49.704;9.908;2022-12-31T13:47:28;20.60;59.40
27671;DHT22;15077;49.704;9.908;2022-12-31T13:50:28;20.60;59.20
27671;DHT22;15077;49.704;9.908;2022-12-31T13:53:22;20.50;59.10
27671;DHT22;15077;49.704;9.908;2022-12-31T13:55:59;20.50;59.30
27671;DHT22;15077;49.704;9.908;2022-12-31T13:58:48;20.40;59.50
27671;DHT22;15077;49.704;9.908;2022-12-31T14:01:31;20.30;59.60
27671;DHT22;15077;49.704;9.908;2022-12-31T14:07:25;20.30;59.60
27671;DHT22;15077;49.704;9.908;2022-12-31T14:09:57;20.20;59.50
27671;DHT22;15077;49.704;9.908;2022-12-31T14:12:30;20.20;59.90
27671;DHT22;15077;49.704;9.908;2022-12-31T14:18:08;20.10;60.10
27671;DHT22;15077;49.704;9.908;2022-12-31T14:20:50;20.10;60.10
27671;DHT22;15077;49.704;9.908;2022-12-31T14:26:21;20.10;60.30
27671;DHT22;15077;49.704;9.908;2022-12-31T14:50:29;19.70;60.40
27671;DHT22;15077;49.704;9.908;2022-12-31T14:55:29;19.70;60.70
27671;DHT22;15077;49.704;9.908;2022-12-31T14:57:59;19.60;60.60
27671;DHT22;15077;49.704;9.908;2022-12-31T15:00:32;19.60;61.30
27671;DHT22;15077;49.704;9.908;2022-12-31T15:22:50;19.30;60.90
27671;DHT22;15077;49.704;9.908;2022-12-31T15:25:33;19.30;61.00
27671;DHT22;15077;49.704;9.908;2022-12-31T15:28:25;19.30;61.10
27671;DHT22;15077;49.704;9.908;2022-12-31T15:33:39;19.20;61.20
27671;DHT22;15077;49.704;9.908;2022-12-31T15:36:23;19.20;61.30
27671;DHT22;15077;49.704;9.908;2022-12-31T15:38:51;19.10;61.30
27671;DHT22;15077;49.704;9.908;2022-12-31T15:41:47;19.10;61.30
27671;DHT22;15077;49.704;9.908;2022-12-31T15:49:54;19.00;61.50
27671;DHT22;15077;49.704;9.908;2022-12-31T15:52:38;19.00;61.60
27671;DHT22;15077;49.704;9.908;2022-12-31T15:55:07;19.00;61.70
27671;DHT22;15077;49.704;9.908;2022-12-31T15:57:45;18.90;61.70
27671;DHT22;15077;49.704;9.908;2022-12-31T16:00:17;18.90;61.80
27671;DHT22;15077;49.704;9.908;2022-12-31T16:02:51;18.90;61.70
27671;DHT22;15077;49.704;9.908;2022-12-31T16:05:22;18.80;61.70
27671;DHT22;15077;49.704;9.908;2022-12-31T16:07:55;18.80;61.80
27671;DHT22;15077;49.704;9.908;2022-12-31T16:10:28;18.70;61.80
27671;DHT22;15077;49.704;9.908;2022-12-31T16:12:57;18.70;61.80
27671;DHT22;15077;49.704;9.908;2022-12-31T16:15:29;18.70;61.80
27671;DHT22;15077;49.704;9.908;2022-12-31T16:17:59;18.60;61.80
27671;DHT22;15077;49.704;9.908;2022-12-31T16:20:30;18.60;61.80
27671;DHT22;15077;49.704;9.908;2022-12-31T16:23:00;18.50;61.80
27671;DHT22;15077;49.704;9.908;2022-12-31T16:25:30;18.50;62.00
27671;DHT22;15077;49.704;9.908;2022-12-31T16:27:57;18.50;62.00
27671;DHT22;15077;49.704;9.908;2022-12-31T16:30:32;18.40;62.00
27671;DHT22;15077;49.704;9.908;2022-12-31T16:33:04;18.40;62.10
27671;DHT22;15077;49.704;9.908;2022-12-31T16:35:36;18.30;62.20
27671;DHT22;15077;49.704;9.908;2022-12-31T16:38:17;18.30;62.20
27671;DHT22;15077;49.704;9.908;2022-12-31T16:43:28;18.20;62.30
27671;DHT22;15077;49.704;9.908;2022-12-31T16:45:56;18.20;62.30
27671;DHT22;15077;49.704;9.908;2022-12-31T16:48:31;18.20;62.40
27671;DHT22;15077;49.704;9.908;2022-12-31T16:50:57;18.10;62.40
27671;DHT22;15077;49.704;9.908;2022-12-31T16:53:25;18.10;62.50
27671;DHT22;15077;49.704;9.908;2022-12-31T16:56:04;18.10;62.50
27671;DHT22;15077;49.704;9.908;2022-12-31T16:58:39;18.10;62.50
27671;DHT22;15077;49.704;9.908;2022-12-31T17:01:35;18.10;62.30
27671;DHT22;15077;49.704;9.908;2022-12-31T17:04:08;18.10;62.40
27671;DHT22;15077;49.704;9.908;2022-12-31T17:06:36;18.10;62.30
27671;DHT22;15077;49.704;9.908;2022-12-31T17:09:31;18.10;62.20
27671;DHT22;15077;49.704;9.908;2022-12-31T17:12:14;18.20;62.20
27671;DHT22;15077;49.704;9.908;2022-12-31T17:14:49;18.20;62.10
27671;DHT22;15077;49.704;9.908;2022-12-31T17:17:22;18.20;62.00
27671;DHT22;15077;49.704;9.908;2022-12-31T17:19:56;18.20;62.00
27671;DHT22;15077;49.704;9.908;2022-12-31T17:22:33;18.20;61.90
27671;DHT22;15077;49.704;9.908;2022-12-31T17:25:07;18.30;61.90
27671;DHT22;15077;49.704;9.908;2022-12-31T17:27:51;18.30;61.90
27671;DHT22;15077;49.704;9.908;2022-12-31T17:30:40;18.30;62.20
27671;DHT22;15077;49.704;9.908;2022-12-31T17:35:48;18.30;61.80
27671;DHT22;15077;49.704;9.908;2022-12-31T17:40:52;18.30;61.80
27671;DHT22;15077;49.704;9.908;2022-12-31T17:43:20;18.30;61.80
27671;DHT22;15077;49.704;9.908;2022-12-31T17:45:50;18.20;61.70
27671;DHT22;15077;49.704;9.908;2022-12-31T17:48:18;18.20;61.70
27671;DHT22;15077;49.704;9.908;2022-12-31T17:50:53;18.20;61.70
27671;DHT22;15077;49.704;9.908;2022-12-31T17:53:23;18.20;61.70
27671;DHT22;15077;49.704;9.908;2022-12-31T17:55:55;18.20;61.70
27671;DHT22;15077;49.704;9.908;2022-12-31T17:58:32;18.10;61.70
27671;DHT22;15077;49.704;9.908;2022-12-31T18:01:04;18.10;61.80
27671;DHT22;15077;49.704;9.908;2022-12-31T18:03:31;18.10;61.90
27671;DHT22;15077;49.704;9.908;2022-12-31T18:05:56;18.10;61.90
27671;DHT22;15077;49.704;9.908;2022-12-31T18:08:22;18.00;61.90
27671;DHT22;15077;49.704;9.908;2022-12-31T18:10:49;18.00;62.00
27671;DHT22;15077;49.704;9.908;2022-12-31T18:13:19;18.00;61.90
27671;DHT22;15077;49.704;9.908;2022-12-31T18:15:47;18.00;62.00
27671;DHT22;15077;49.704;9.908;2022-12-31T18:18:22;18.00;62.00
27671;DHT22;15077;49.704;9.908;2022-12-31T18:20:51;18.00;61.90
27671;DHT22;15077;49.704;9.908;2022-12-31T18:23:23;17.90;61.80
27671;DHT22;15077;49.704;9.908;2022-12-31T18:25:52;17.90;61.90
27671;DHT22;15077;49.704;9.908;2022-12-31T18:28:18;17.90;61.90
27671;DHT22;15077;49.704;9.908;2022-12-31T18:30:45;17.90;61.90
27671;DHT22;15077;49.704;9.908;2022-12-31T18:33:13;17.90;62.00
27671;DHT22;15077;49.704;9.908;2022-12-31T18:35:47;17.90;62.00
27671;DHT22;15077;49.704;9.908;2022-12-31T18:38:16;17.90;62.00
27671;DHT22;15077;49.704;9.908;2022-12-31T18:40:47;17.80;61.90
27671;DHT22;15077;49.704;9.908;2022-12-31T18:43:18;17.80;61.90
27671;DHT22;15077;49.704;9.908;2022-12-31T18:45:45;17.80;61.90
27671;DHT22;15077;49.704;9.908;2022-12-31T18:48:12;17.80;61.90
27671;DHT22;15077;49.704;9.908;2022-12-31T18:50:38;17.80;62.10
27671;DHT22;15077;49.704;9.908;2022-12-31T18:53:05;17.80;62.10
27671;DHT22;15077;49.704;9.908;2022-12-31T18:55:39;17.80;62.10
27671;DHT22;15077;49.704;9.908;2022-12-31T18:58:09;17.80;61.90
27671;DHT22;15077;49.704;9.908;2022-12-31T19:00:36;17.80;62.60
27671;DHT22;15077;49.704;9.908;2022-12-31T19:03:03;17.80;62.10
27671;DHT22;15077;49.704;9.908;2022-12-31T19:05:35;17.80;62.60
27671;DHT22;15077;49.704;9.908;2022-12-31T19:08:01;17.80;62.10
27671;DHT22;15077;49.704;9.908;2022-12-31T19:10:27;17.80;62.20
27671;DHT22;15077;49.704;9.908;2022-12-31T19:12:53;17.70;62.20
27671;DHT22;15077;49.704;9.908;2022-12-31T19:15:23;17.70;62.20
27671;DHT22;15077;49.704;9.908;2022-12-31T19:17:50;17.60;62.20
27671;DHT22;15077;49.704;9.908;2022-12-31T19:20:15;17.60;62.20
27671;DHT22;15077;49.704;9.908;2022-12-31T19:22:41;17.60;62.30
27671;DHT22;15077;49.704;9.908;2022-12-31T19:27:48;17.50;62.40
27671;DHT22;15077;49.704;9.908;2022-12-31T19:30:26;17.40;63.00
27671;DHT22;15077;49.704;9.908;2022-12-31T19:32:54;17.40;62.50
27671;DHT22;15077;49.704;9.908;2022-12-31T19:35:20;17.40;62.50
27671;DHT22;15077;49.704;9.908;2022-12-31T19:37:48;17.40;62.60
27671;DHT22;15077;49.704;9.908;2022-12-31T19:40:22;17.30;62.50
27671;DHT22;15077;49.704;9.908;2022-12-31T19:42:51;17.30;62.60
27671;DHT22;15077;49.704;9.908;2022-12-31T19:45:21;17.30;62.60
27671;DHT22;15077;49.704;9.908;2022-12-31T19:47:47;17.20;62.60
27671;DHT22;15077;49.704;9.908;2022-12-31T19:50:21;17.20;62.70
27671;DHT22;15077;49.704;9.908;2022-12-31T19:52:51;17.20;62.70
27671;DHT22;15077;49.704;9.908;2022-12-31T19:55:20;17.10;62.60
27671;DHT22;15077;49.704;9.908;2022-12-31T19:57:49;17.10;62.70
27671;DHT22;15077;49.704;9.908;2022-12-31T20:00:16;17.10;63.40
27671;DHT22;15077;49.704;9.908;2022-12-31T20:02:44;17.00;62.80
27671;DHT22;15077;49.704;9.908;2022-12-31T20:05:13;17.00;62.80
27671;DHT22;15077;49.704;9.908;2022-12-31T20:07:40;17.00;62.90
27671;DHT22;15077;49.704;9.908;2022-12-31T20:10:07;16.90;62.90
27671;DHT22;15077;49.704;9.908;2022-12-31T20:12:33;16.90;63.00
27671;DHT22;15077;49.704;9.908;2022-12-31T20:15:01;16.90;63.10
27671;DHT22;15077;49.704;9.908;2022-12-31T20:17:27;16.80;63.10
27671;DHT22;15077;49.704;9.908;2022-12-31T20:19:52;16.90;63.10
27671;DHT22;15077;49.704;9.908;2022-12-31T20:22:18;16.90;63.10
27671;DHT22;15077;49.704;9.908;2022-12-31T20:24:44;16.80;63.10
27671;DHT22;15077;49.704;9.908;2022-12-31T20:27:10;16.80;63.20
27671;DHT22;15077;49.704;9.908;2022-12-31T20:29:36;16.80;63.20
27671;DHT22;15077;49.704;9.908;2022-12-31T20:32:02;16.80;63.20
27671;DHT22;15077;49.704;9.908;2022-12-31T20:34:28;16.80;63.20
27671;DHT22;15077;49.704;9.908;2022-12-31T20:36:54;16.80;63.30
27671;DHT22;15077;49.704;9.908;2022-12-31T20:39:21;16.80;63.30
27671;DHT22;15077;49.704;9.908;2022-12-31T20:41:47;16.70;63.20
27671;DHT22;15077;49.704;9.908;2022-12-31T20:44:12;16.70;63.20
27671;DHT22;15077;49.704;9.908;2022-12-31T20:46:38;16.70;63.30
27671;DHT22;15077;49.704;9.908;2022-12-31T20:49:04;16.70;63.30
27671;DHT22;15077;49.704;9.908;2022-12-31T20:51:33;16.70;63.30
27671;DHT22;15077;49.704;9.908;2022-12-31T20:54:09;16.70;63.40
27671;DHT22;15077;49.704;9.908;2022-12-31T20:56:38;16.70;63.50
27671;DHT22;15077;49.704;9.908;2022-12-31T20:59:06;16.60;63.30
27671;DHT22;15077;49.704;9.908;2022-12-31T21:01:32;16.60;63.40
27671;DHT22;15077;49.704;9.908;2022-12-31T21:03:59;16.60;63.40
27671;DHT22;15077;49.704;9.908;2022-12-31T21:06:26;16.60;63.40
27671;DHT22;15077;49.704;9.908;2022-12-31T21:08:58;16.60;64.00